createdAt,value
2019-02-20T00:00:16.560Z,1013.81
2019-02-20T00:01:20.742Z,1013.80
2019-02-20T00:02:24.957Z,1013.81
2019-02-20T00:03:29.212Z,1013.81
2019-02-20T00:04:33.413Z,1013.82
2019-02-20T00:05:37.686Z,1013.82
2019-02-20T00:06:41.874Z,1013.81
2019-02-20T00:07:46.124Z,1013.78
2019-02-20T00:08:50.317Z,1013.75
2019-02-20T00:09:54.523Z,1013.75
2019-02-20T00:10:58.717Z,1013.75
2019-02-20T00:12:02.837Z,1013.79
2019-02-20T00:13:07.121Z,1013.80
2019-02-20T00:14:11.325Z,1013.81
2019-02-20T00:15:15.517Z,1013.84
2019-02-20T00:16:19.730Z,1013.85
2019-02-20T00:17:23.793Z,1013.84
2019-02-20T00:18:27.999Z,1013.87
2019-02-20T00:19:32.248Z,1013.87
2019-02-20T00:20:36.460Z,1013.89
2019-02-20T00:21:40.517Z,1013.89
2019-02-20T00:22:44.852Z,1013.89
2019-02-20T00:23:49.035Z,1013.87
2019-02-20T00:24:53.239Z,1013.85
2019-02-20T00:25:57.478Z,1013.85
2019-02-20T00:27:01.692Z,1013.85
2019-02-20T00:28:05.956Z,1013.87
2019-02-20T00:29:10.184Z,1013.85
2019-02-20T00:30:14.406Z,1013.83
2019-02-20T00:31:18.500Z,1013.84
2019-02-20T00:32:22.799Z,1013.84
2019-02-20T00:33:27.064Z,1013.90
2019-02-20T00:34:31.157Z,1013.83
2019-02-20T00:35:35.399Z,1013.84
2019-02-20T00:36:39.637Z,1013.80
2019-02-20T00:37:43.755Z,1013.76
2019-02-20T00:38:48.059Z,1013.80
2019-02-20T00:39:52.147Z,1013.76
2019-02-20T00:40:56.406Z,1013.77
2019-02-20T00:42:00.508Z,1013.79
2019-02-20T00:43:04.804Z,1013.80
2019-02-20T00:44:08.984Z,1013.81
2019-02-20T00:45:13.134Z,1013.84
2019-02-20T00:46:17.442Z,1013.85
2019-02-20T00:47:21.645Z,1013.88
2019-02-20T00:48:25.894Z,1013.85
2019-02-20T00:49:30.109Z,1013.90
2019-02-20T00:50:34.344Z,1013.90
2019-02-20T00:51:38.548Z,1013.92
2019-02-20T00:52:49.593Z,1013.94
2019-02-20T00:53:46.983Z,1013.95
2019-02-20T00:54:51.218Z,1013.93
2019-02-20T00:55:55.359Z,1013.92
2019-02-20T00:56:59.658Z,1013.95
2019-02-20T00:58:03.908Z,1013.98
2019-02-20T00:59:08.098Z,1013.97
2019-02-20T01:00:12.331Z,1013.94
2019-02-20T01:01:16.569Z,1013.95
2019-02-20T01:02:20.795Z,1014.00
2019-02-20T01:03:24.919Z,1014.00
2019-02-20T01:04:29.179Z,1014.00
2019-02-20T01:05:33.376Z,1013.97
2019-02-20T01:06:37.582Z,1013.99
2019-02-20T01:07:41.815Z,1013.99
2019-02-20T01:08:45.967Z,1013.98
2019-02-20T01:09:50.248Z,1013.96
2019-02-20T01:10:54.374Z,1013.95
2019-02-20T01:11:58.654Z,1013.93
2019-02-20T01:13:02.902Z,1013.96
2019-02-20T01:14:07.162Z,1013.96
2019-02-20T01:15:11.316Z,1013.98
2019-02-20T01:16:15.676Z,1013.95
2019-02-20T01:17:19.756Z,1013.97
2019-02-20T01:18:24.035Z,1013.96
2019-02-20T01:19:28.254Z,1013.96
2019-02-20T01:20:32.494Z,1013.98
2019-02-20T01:21:36.752Z,1013.95
2019-02-20T01:22:40.828Z,1014.01
2019-02-20T01:23:46.018Z,1013.99
2019-02-20T01:24:49.905Z,1013.98
2019-02-20T01:25:54.097Z,1013.98
2019-02-20T01:26:58.356Z,1013.97
2019-02-20T01:28:02.476Z,1014.02
2019-02-20T01:29:06.701Z,1014.01
2019-02-20T01:30:10.851Z,1014.01
2019-02-20T01:31:18.103Z,1014.01
2019-02-20T01:32:21.298Z,1014.04
2019-02-20T01:33:25.627Z,1014.04
2019-02-20T01:34:29.693Z,1014.04
2019-02-20T01:35:33.914Z,1014.07
2019-02-20T01:36:38.170Z,1014.08
2019-02-20T01:37:42.412Z,1014.06
2019-02-20T01:38:46.550Z,1014.07
2019-02-20T01:39:50.897Z,1014.10
2019-02-20T01:40:55.075Z,1014.06
2019-02-20T01:41:59.343Z,1014.10
2019-02-20T01:43:03.552Z,1014.10
2019-02-20T01:44:07.796Z,1014.11
2019-02-20T01:45:12.070Z,1014.09
2019-02-20T01:46:16.159Z,1014.14
2019-02-20T01:47:20.442Z,1014.13
2019-02-20T01:48:24.723Z,1014.11
2019-02-20T01:49:28.868Z,1014.13
2019-02-20T01:50:33.147Z,1014.10
2019-02-20T01:51:37.378Z,1014.09
2019-02-20T01:52:41.617Z,1014.10
2019-02-20T01:53:45.748Z,1014.11
2019-02-20T01:54:50.081Z,1014.07
2019-02-20T01:55:54.350Z,1014.09
2019-02-20T01:56:58.397Z,1014.09
2019-02-20T01:58:02.659Z,1014.12
2019-02-20T01:59:06.912Z,1014.09
2019-02-20T02:00:11.059Z,1014.12
2019-02-20T02:01:15.313Z,1014.12
2019-02-20T02:02:19.471Z,1014.11
2019-02-20T02:03:23.734Z,1014.13
2019-02-20T02:04:27.984Z,1014.13
2019-02-20T02:05:32.256Z,1014.12
2019-02-20T02:06:36.507Z,1014.16
2019-02-20T02:07:40.708Z,1014.14
2019-02-20T02:08:44.923Z,1014.12
2019-02-20T02:09:49.089Z,1014.16
2019-02-20T02:10:53.235Z,1014.13
2019-02-20T02:11:57.555Z,1014.12
2019-02-20T02:13:01.740Z,1014.14
2019-02-20T02:14:05.949Z,1014.15
2019-02-20T02:15:10.179Z,1014.14
2019-02-20T02:16:14.405Z,1014.15
2019-02-20T02:17:18.635Z,1014.15
2019-02-20T02:18:22.891Z,1014.12
2019-02-20T02:19:27.091Z,1014.14
2019-02-20T02:20:31.231Z,1014.12
2019-02-20T02:21:35.492Z,1014.13
2019-02-20T02:22:39.745Z,1014.13
2019-02-20T02:23:43.976Z,1014.11
2019-02-20T02:24:48.134Z,1014.11
2019-02-20T02:25:52.336Z,1014.05
2019-02-20T02:26:56.589Z,1014.04
2019-02-20T02:28:00.701Z,1014.04
2019-02-20T02:29:05.110Z,1014.04
2019-02-20T02:30:09.227Z,1014.03
2019-02-20T02:31:13.483Z,1014.06
2019-02-20T02:32:17.683Z,1014.08
2019-02-20T02:33:21.925Z,1014.08
2019-02-20T02:34:26.047Z,1014.14
2019-02-20T02:35:30.364Z,1014.14
2019-02-20T02:36:34.465Z,1014.13
2019-02-20T02:37:38.627Z,1014.15
2019-02-20T02:38:42.805Z,1014.17
2019-02-20T02:39:47.062Z,1014.13
2019-02-20T02:40:51.339Z,1014.12
2019-02-20T02:41:55.484Z,1014.13
2019-02-20T02:42:59.744Z,1014.14
2019-02-20T02:44:03.988Z,1014.10
2019-02-20T02:45:08.240Z,1014.12
2019-02-20T02:46:12.331Z,1014.08
2019-02-20T02:47:16.629Z,1014.07
2019-02-20T02:48:20.755Z,1014.08
2019-02-20T02:49:25.057Z,1014.12
2019-02-20T02:50:29.380Z,1014.10
2019-02-20T02:51:33.505Z,1014.12
2019-02-20T02:52:37.638Z,1014.14
2019-02-20T02:53:41.926Z,1014.17
2019-02-20T02:54:46.126Z,1014.19
2019-02-20T02:55:50.413Z,1014.23
2019-02-20T02:56:54.635Z,1014.22
2019-02-20T02:57:58.774Z,1014.28
2019-02-20T02:59:03.173Z,1014.26
2019-02-20T03:00:07.369Z,1014.30
2019-02-20T03:01:14.520Z,1014.28
2019-02-20T03:02:17.808Z,1014.24
2019-02-20T03:03:21.982Z,1014.28
2019-02-20T03:04:26.179Z,1014.24
2019-02-20T03:05:30.431Z,1014.28
2019-02-20T03:06:34.683Z,1014.32
2019-02-20T03:07:38.780Z,1014.31
2019-02-20T03:08:43.028Z,1014.29
2019-02-20T03:09:47.278Z,1014.32
2019-02-20T03:10:51.540Z,1014.32
2019-02-20T03:11:55.744Z,1014.33
2019-02-20T03:12:59.936Z,1014.31
2019-02-20T03:14:04.098Z,1014.28
2019-02-20T03:15:08.343Z,1014.28
2019-02-20T03:16:12.623Z,1014.27
2019-02-20T03:17:16.804Z,1014.29
2019-02-20T03:18:20.937Z,1014.30
2019-02-20T03:19:25.231Z,1014.28
2019-02-20T03:20:29.469Z,1014.33
2019-02-20T03:21:33.757Z,1014.33
2019-02-20T03:22:37.842Z,1014.31
2019-02-20T03:23:43.036Z,1014.36
2019-02-20T03:24:46.992Z,1014.40
2019-02-20T03:25:51.200Z,1014.39
2019-02-20T03:26:55.310Z,1014.39
2019-02-20T03:27:59.596Z,1014.38
2019-02-20T03:29:03.843Z,1014.38
2019-02-20T03:30:08.018Z,1014.42
2019-02-20T03:31:12.199Z,1014.41
2019-02-20T03:32:16.382Z,1014.43
2019-02-20T03:33:20.649Z,1014.44
2019-02-20T03:34:24.825Z,1014.42
2019-02-20T03:35:29.068Z,1014.46
2019-02-20T03:36:33.223Z,1014.47
2019-02-20T03:37:37.496Z,1014.47
2019-02-20T03:38:41.759Z,1014.46
2019-02-20T03:39:45.923Z,1014.45
2019-02-20T03:40:50.081Z,1014.43
2019-02-20T03:41:54.421Z,1014.44
2019-02-20T03:42:58.646Z,1014.48
2019-02-20T03:44:02.768Z,1014.47
2019-02-20T03:45:07.031Z,1014.50
2019-02-20T03:46:11.184Z,1014.53
2019-02-20T03:47:15.406Z,1014.51
2019-02-20T03:48:19.675Z,1014.50
2019-02-20T03:49:23.948Z,1014.49
2019-02-20T03:50:28.157Z,1014.45
2019-02-20T03:51:32.391Z,1014.41
2019-02-20T03:52:36.593Z,1014.45
2019-02-20T03:53:50.898Z,1014.50
2019-02-20T03:54:45.036Z,1014.52
2019-02-20T03:55:49.254Z,1014.56
2019-02-20T03:56:53.539Z,1014.61
2019-02-20T03:57:57.649Z,1014.63
2019-02-20T03:59:01.953Z,1014.60
2019-02-20T04:00:06.156Z,1014.64
2019-02-20T04:01:10.389Z,1014.64
2019-02-20T04:02:14.641Z,1014.61
2019-02-20T04:03:18.724Z,1014.63
2019-02-20T04:04:23.126Z,1014.64
2019-02-20T04:05:27.264Z,1014.63
2019-02-20T04:06:31.510Z,1014.66
2019-02-20T04:07:35.698Z,1014.68
2019-02-20T04:08:39.835Z,1014.68
2019-02-20T04:09:44.107Z,1014.66
2019-02-20T04:10:48.208Z,1014.68
2019-02-20T04:11:52.476Z,1014.73
2019-02-20T04:12:56.609Z,1014.75
2019-02-20T04:14:00.860Z,1014.79
2019-02-20T04:15:04.972Z,1014.74
2019-02-20T04:16:09.359Z,1014.76
2019-02-20T04:17:13.464Z,1014.76
2019-02-20T04:18:17.731Z,1014.73
2019-02-20T04:19:21.832Z,1014.74
2019-02-20T04:20:26.082Z,1014.77
2019-02-20T04:21:30.323Z,1014.78
2019-02-20T04:22:34.454Z,1014.78
2019-02-20T04:23:38.713Z,1014.77
2019-02-20T04:24:42.952Z,1014.78
2019-02-20T04:25:47.135Z,1014.78
2019-02-20T04:26:51.296Z,1014.78
2019-02-20T04:27:55.552Z,1014.79
2019-02-20T04:28:59.679Z,1014.76
2019-02-20T04:30:03.860Z,1014.75
2019-02-20T04:31:08.050Z,1014.72
2019-02-20T04:32:12.358Z,1014.73
2019-02-20T04:33:16.589Z,1014.73
2019-02-20T04:34:20.781Z,1014.74
2019-02-20T04:35:24.918Z,1014.74
2019-02-20T04:36:29.240Z,1014.75
2019-02-20T04:37:33.479Z,1014.72
2019-02-20T04:38:37.697Z,1014.75
2019-02-20T04:39:41.828Z,1014.75
2019-02-20T04:40:46.146Z,1014.74
2019-02-20T04:41:50.388Z,1014.75
2019-02-20T04:42:54.734Z,1014.77
2019-02-20T04:43:58.914Z,1014.77
2019-02-20T04:45:03.089Z,1014.76
2019-02-20T04:46:07.317Z,1014.78
2019-02-20T04:47:11.528Z,1014.79
2019-02-20T04:48:15.700Z,1014.77
2019-02-20T04:49:19.960Z,1014.80
2019-02-20T04:50:24.204Z,1014.81
2019-02-20T04:51:28.440Z,1014.82
2019-02-20T04:52:32.683Z,1014.80
2019-02-20T04:53:36.813Z,1014.83
2019-02-20T04:54:41.095Z,1014.83
2019-02-20T04:55:45.207Z,1014.82
2019-02-20T04:56:49.464Z,1014.86
2019-02-20T04:57:53.712Z,1014.84
2019-02-20T04:58:57.951Z,1014.84
2019-02-20T05:00:02.237Z,1014.85
2019-02-20T05:01:06.289Z,1014.84
2019-02-20T05:02:10.648Z,1014.85
2019-02-20T05:03:14.838Z,1014.84
2019-02-20T05:04:19.082Z,1014.87
2019-02-20T05:05:23.231Z,1014.84
2019-02-20T05:06:27.507Z,1014.86
2019-02-20T05:07:31.776Z,1014.85
2019-02-20T05:08:35.872Z,1014.87
2019-02-20T05:09:40.157Z,1014.87
2019-02-20T05:10:44.320Z,1014.89
2019-02-20T05:11:48.605Z,1014.90
2019-02-20T05:12:52.865Z,1014.91
2019-02-20T05:13:57.031Z,1014.97
2019-02-20T05:15:01.277Z,1014.98
2019-02-20T05:16:05.375Z,1015.00
2019-02-20T05:17:09.613Z,1014.98
2019-02-20T05:18:13.905Z,1014.97
2019-02-20T05:19:18.105Z,1014.93
2019-02-20T05:20:22.349Z,1014.92
2019-02-20T05:21:26.587Z,1014.94
2019-02-20T05:22:30.711Z,1014.95
2019-02-20T05:23:35.003Z,1014.97
2019-02-20T05:24:39.257Z,1014.95
2019-02-20T05:25:43.389Z,1014.99
2019-02-20T05:26:54.647Z,1014.95
2019-02-20T05:27:57.318Z,1014.95
2019-02-20T05:29:01.409Z,1014.98
2019-02-20T05:30:05.567Z,1014.98
2019-02-20T05:31:09.737Z,1014.96
2019-02-20T05:32:14.024Z,1014.97
2019-02-20T05:33:18.139Z,1015.00
2019-02-20T05:34:22.326Z,1014.98
2019-02-20T05:35:26.587Z,1014.97
2019-02-20T05:36:30.791Z,1014.95
2019-02-20T05:37:34.935Z,1014.93
2019-02-20T05:38:39.185Z,1014.92
2019-02-20T05:39:43.397Z,1014.93
2019-02-20T05:40:47.619Z,1014.93
2019-02-20T05:41:51.752Z,1014.97
2019-02-20T05:42:56.008Z,1014.98
2019-02-20T05:44:00.222Z,1015.01
2019-02-20T05:45:04.288Z,1015.05
2019-02-20T05:46:08.593Z,1015.08
2019-02-20T05:47:13.569Z,1015.10
2019-02-20T05:48:17.460Z,1015.11
2019-02-20T05:49:21.651Z,1015.17
2019-02-20T05:50:25.812Z,1015.13
2019-02-20T05:51:29.973Z,1015.13
2019-02-20T05:52:34.247Z,1015.11
2019-02-20T05:53:38.420Z,1015.09
2019-02-20T05:54:42.694Z,1015.02
2019-02-20T05:55:46.833Z,1015.00
2019-02-20T05:56:51.077Z,1015.02
2019-02-20T05:57:55.319Z,1014.99
2019-02-20T05:58:59.445Z,1014.99
2019-02-20T06:00:03.711Z,1014.99
2019-02-20T06:01:07.853Z,1014.99
2019-02-20T06:02:12.938Z,1015.03
2019-02-20T06:03:16.852Z,1015.04
2019-02-20T06:04:21.064Z,1015.07
2019-02-20T06:05:25.167Z,1015.10
2019-02-20T06:06:29.461Z,1015.10
2019-02-20T06:07:33.703Z,1015.12
2019-02-20T06:08:37.866Z,1015.14
2019-02-20T06:09:42.130Z,1015.19
2019-02-20T06:10:46.316Z,1015.24
2019-02-20T06:11:50.473Z,1015.23
2019-02-20T06:12:54.778Z,1015.25
2019-02-20T06:13:58.884Z,1015.23
2019-02-20T06:15:03.121Z,1015.25
2019-02-20T06:16:07.322Z,1015.29
2019-02-20T06:17:11.530Z,1015.27
2019-02-20T06:18:15.764Z,1015.29
2019-02-20T06:19:19.958Z,1015.31
2019-02-20T06:20:24.179Z,1015.34
2019-02-20T06:21:28.408Z,1015.35
2019-02-20T06:22:32.645Z,1015.35
2019-02-20T06:23:36.930Z,1015.37
2019-02-20T06:24:44.108Z,1015.37
2019-02-20T06:25:45.358Z,1015.36
2019-02-20T06:26:49.449Z,1015.40
2019-02-20T06:27:53.693Z,1015.41
2019-02-20T06:28:57.938Z,1015.43
2019-02-20T06:30:02.153Z,1015.42
2019-02-20T06:31:06.319Z,1015.45
2019-02-20T06:32:10.618Z,1015.50
2019-02-20T06:33:14.644Z,1015.52
2019-02-20T06:34:18.978Z,1015.52
2019-02-20T06:35:23.119Z,1015.51
2019-02-20T06:36:27.391Z,1015.53
2019-02-20T06:37:31.542Z,1015.53
2019-02-20T06:38:35.840Z,1015.60
2019-02-20T06:39:40.003Z,1015.65
2019-02-20T06:40:44.140Z,1015.66
2019-02-20T06:41:48.397Z,1015.67
2019-02-20T06:42:52.529Z,1015.71
2019-02-20T06:43:56.692Z,1015.75
2019-02-20T06:45:00.958Z,1015.77
2019-02-20T06:46:05.088Z,1015.78
2019-02-20T06:47:09.364Z,1015.79
2019-02-20T06:48:13.482Z,1015.79
2019-02-20T06:49:17.795Z,1015.84
2019-02-20T06:50:22.017Z,1015.84
2019-02-20T06:51:26.210Z,1015.83
2019-02-20T06:52:30.451Z,1015.83
2019-02-20T06:53:34.683Z,1015.84
2019-02-20T06:54:38.882Z,1015.85
2019-02-20T06:55:43.100Z,1015.83
2019-02-20T06:56:47.355Z,1015.84
2019-02-20T06:57:51.450Z,1015.86
2019-02-20T06:58:55.722Z,1015.88
2019-02-20T06:59:59.953Z,1015.89
2019-02-20T07:01:04.145Z,1015.90
2019-02-20T07:02:08.278Z,1015.94
2019-02-20T07:03:12.553Z,1015.93
2019-02-20T07:04:16.830Z,1015.90
2019-02-20T07:05:20.994Z,1015.91
2019-02-20T07:06:25.280Z,1015.93
2019-02-20T07:07:29.437Z,1015.94
2019-02-20T07:08:33.690Z,1015.94
2019-02-20T07:09:37.920Z,1015.97
2019-02-20T07:10:42.021Z,1015.98
2019-02-20T07:11:46.190Z,1016.01
2019-02-20T07:12:50.366Z,1015.99
2019-02-20T07:13:54.577Z,1016.01
2019-02-20T07:14:58.806Z,1016.02
2019-02-20T07:16:02.980Z,1016.02
2019-02-20T07:17:07.194Z,1016.01
2019-02-20T07:18:11.418Z,1016.03
2019-02-20T07:19:15.545Z,1016.04
2019-02-20T07:20:19.830Z,1016.04
2019-02-20T07:21:24.029Z,1016.06
2019-02-20T07:22:28.199Z,1016.06
2019-02-20T07:23:32.487Z,1016.07
2019-02-20T07:24:36.624Z,1016.11
2019-02-20T07:25:40.887Z,1016.10
2019-02-20T07:26:45.142Z,1016.13
2019-02-20T07:27:49.327Z,1016.14
2019-02-20T07:28:53.609Z,1016.20
2019-02-20T07:29:57.855Z,1016.16
2019-02-20T07:31:02.055Z,1016.21
2019-02-20T07:32:06.262Z,1016.20
2019-02-20T07:33:10.519Z,1016.24
2019-02-20T07:34:14.738Z,1016.25
2019-02-20T07:35:18.953Z,1016.27
2019-02-20T07:36:23.196Z,1016.28
2019-02-20T07:37:27.414Z,1016.28
2019-02-20T07:38:31.527Z,1016.30
2019-02-20T07:39:35.839Z,1016.30
2019-02-20T07:40:39.980Z,1016.30
2019-02-20T07:41:44.140Z,1016.29
2019-02-20T07:42:48.428Z,1016.29
2019-02-20T07:43:52.651Z,1016.30
2019-02-20T07:44:56.792Z,1016.27
2019-02-20T07:46:01.005Z,1016.27
2019-02-20T07:47:05.286Z,1016.31
2019-02-20T07:48:09.519Z,1016.32
2019-02-20T07:49:13.735Z,1016.34
2019-02-20T07:50:17.872Z,1016.35
2019-02-20T07:51:22.192Z,1016.36
2019-02-20T07:52:25.276Z,1016.37
2019-02-20T07:53:29.520Z,1016.38
2019-02-20T07:54:33.740Z,1016.36
2019-02-20T07:55:37.903Z,1016.36
2019-02-20T07:56:42.185Z,1016.35
2019-02-20T07:57:46.322Z,1016.34
2019-02-20T07:58:50.624Z,1016.36
2019-02-20T07:59:54.844Z,1016.39
2019-02-20T08:00:59.091Z,1016.40
2019-02-20T08:02:03.310Z,1016.42
2019-02-20T08:03:07.550Z,1016.45
2019-02-20T08:04:11.774Z,1016.46
2019-02-20T08:05:16.085Z,1016.48
2019-02-20T08:06:20.272Z,1016.51
2019-02-20T08:07:24.503Z,1016.52
2019-02-20T08:08:28.643Z,1016.54
2019-02-20T08:09:32.823Z,1016.54
2019-02-20T08:10:37.055Z,1016.56
2019-02-20T08:11:41.129Z,1016.55
2019-02-20T08:12:45.417Z,1016.56
2019-02-20T08:13:49.630Z,1016.55
2019-02-20T08:14:53.898Z,1016.55
2019-02-20T08:15:58.015Z,1016.60
2019-02-20T08:17:02.188Z,1016.60
2019-02-20T08:18:06.368Z,1016.58
2019-02-20T08:19:10.656Z,1016.60
2019-02-20T08:20:14.849Z,1016.60
2019-02-20T08:21:19.052Z,1016.65
2019-02-20T08:22:23.214Z,1016.63
2019-02-20T08:23:27.407Z,1016.66
2019-02-20T08:24:31.719Z,1016.71
2019-02-20T08:25:35.873Z,1016.73
2019-02-20T08:26:39.975Z,1016.76
2019-02-20T08:27:44.073Z,1016.79
2019-02-20T08:28:48.342Z,1016.83
2019-02-20T08:29:52.518Z,1016.87
2019-02-20T08:30:56.728Z,1016.86
2019-02-20T08:32:01.009Z,1016.91
2019-02-20T08:33:05.124Z,1016.93
2019-02-20T08:34:09.316Z,1016.91
2019-02-20T08:35:13.491Z,1016.89
2019-02-20T08:36:17.736Z,1016.90
2019-02-20T08:37:21.900Z,1016.92
2019-02-20T08:38:26.125Z,1016.92
2019-02-20T08:39:30.201Z,1016.94
2019-02-20T08:40:34.534Z,1016.99
2019-02-20T08:41:38.650Z,1016.99
2019-02-20T08:42:42.968Z,1017.02
2019-02-20T08:43:47.163Z,1017.04
2019-02-20T08:44:51.440Z,1017.06
2019-02-20T08:45:55.666Z,1017.05
2019-02-20T08:46:59.774Z,1017.06
2019-02-20T08:48:04.057Z,1017.09
2019-02-20T08:49:08.193Z,1017.12
2019-02-20T08:50:12.414Z,1017.17
2019-02-20T08:51:16.602Z,1017.18
2019-02-20T08:52:20.863Z,1017.20
2019-02-20T08:53:25.031Z,1017.21
2019-02-20T08:54:29.316Z,1017.23
2019-02-20T08:55:33.504Z,1017.23
2019-02-20T08:56:37.827Z,1017.24
2019-02-20T08:57:41.980Z,1017.23
2019-02-20T08:58:46.212Z,1017.21
2019-02-20T08:59:51.758Z,1017.18
2019-02-20T09:00:54.727Z,1017.17
2019-02-20T09:01:58.975Z,1017.16
2019-02-20T09:03:03.098Z,1017.18
2019-02-20T09:04:07.323Z,1017.22
2019-02-20T09:05:11.563Z,1017.18
2019-02-20T09:06:15.785Z,1017.18
2019-02-20T09:07:20.069Z,1017.20
2019-02-20T09:08:24.303Z,1017.22
2019-02-20T09:09:28.485Z,1017.26
2019-02-20T09:10:32.704Z,1017.30
2019-02-20T09:11:36.971Z,1017.25
2019-02-20T09:12:41.134Z,1017.28
2019-02-20T09:13:48.418Z,1017.25
2019-02-20T09:14:51.736Z,1017.28
2019-02-20T09:15:55.882Z,1017.27
2019-02-20T09:17:00.165Z,1017.27
2019-02-20T09:18:04.489Z,1017.28
2019-02-20T09:19:08.628Z,1017.28
2019-02-20T09:20:12.875Z,1017.25
2019-02-20T09:21:17.132Z,1017.26
2019-02-20T09:22:21.374Z,1017.27
2019-02-20T09:23:25.615Z,1017.27
2019-02-20T09:24:29.863Z,1017.29
2019-02-20T09:25:41.396Z,1017.33
2019-02-20T09:26:38.370Z,1017.29
2019-02-20T09:27:42.550Z,1017.32
2019-02-20T09:28:46.722Z,1017.34
2019-02-20T09:29:50.976Z,1017.34
2019-02-20T09:30:55.238Z,1017.36
2019-02-20T09:31:59.468Z,1017.37
2019-02-20T09:33:03.723Z,1017.38
2019-02-20T09:34:07.950Z,1017.38
2019-02-20T09:35:12.137Z,1017.43
2019-02-20T09:36:16.459Z,1017.44
2019-02-20T09:37:20.625Z,1017.45
2019-02-20T09:38:24.870Z,1017.45
2019-02-20T09:39:29.184Z,1017.48
2019-02-20T09:40:33.348Z,1017.52
2019-02-20T09:41:37.657Z,1017.57
2019-02-20T09:42:41.922Z,1017.56
2019-02-20T09:43:46.054Z,1017.60
2019-02-20T09:44:50.349Z,1017.55
2019-02-20T09:45:54.570Z,1017.55
2019-02-20T09:46:58.854Z,1017.59
2019-02-20T09:48:03.131Z,1017.57
2019-02-20T09:49:07.248Z,1017.56
2019-02-20T09:50:11.543Z,1017.55
2019-02-20T09:51:15.801Z,1017.61
2019-02-20T09:52:19.940Z,1017.63
2019-02-20T09:53:24.278Z,1017.65
2019-02-20T09:54:28.412Z,1017.65
2019-02-20T09:55:32.596Z,1017.66
2019-02-20T09:56:36.813Z,1017.67
2019-02-20T09:57:41.074Z,1017.69
2019-02-20T09:58:45.365Z,1017.67
2019-02-20T09:59:49.481Z,1017.69
2019-02-20T10:00:53.800Z,1017.70
2019-02-20T10:01:58.040Z,1017.71
2019-02-20T10:03:02.311Z,1017.70
2019-02-20T10:04:06.476Z,1017.72
2019-02-20T10:05:10.715Z,1017.75
2019-02-20T10:06:15.035Z,1017.77
2019-02-20T10:07:19.289Z,1017.76
2019-02-20T10:08:23.584Z,1017.73
2019-02-20T10:09:27.759Z,1017.74
2019-02-20T10:10:32.020Z,1017.76
2019-02-20T10:11:36.338Z,1017.77
2019-02-20T10:12:40.568Z,1017.76
2019-02-20T10:13:44.762Z,1017.79
2019-02-20T10:14:49.061Z,1017.82
2019-02-20T10:15:53.320Z,1017.81
2019-02-20T10:16:57.514Z,1017.82
2019-02-20T10:18:01.827Z,1017.84
2019-02-20T10:19:06.113Z,1017.85
2019-02-20T10:20:10.406Z,1017.83
2019-02-20T10:21:14.687Z,1017.82
2019-02-20T10:22:18.845Z,1017.81
2019-02-20T10:23:23.061Z,1017.81
2019-02-20T10:24:27.395Z,1017.79
2019-02-20T10:25:31.658Z,1017.81
2019-02-20T10:26:35.833Z,1017.79
2019-02-20T10:27:40.138Z,1017.82
2019-02-20T10:28:44.434Z,1017.83
2019-02-20T10:29:48.719Z,1017.82
2019-02-20T10:30:53.029Z,1017.84
2019-02-20T10:31:57.143Z,1017.86
2019-02-20T10:33:01.426Z,1017.90
2019-02-20T10:34:05.729Z,1017.90
2019-02-20T10:35:09.991Z,1017.96
2019-02-20T10:36:14.273Z,1017.97
2019-02-20T10:37:18.479Z,1017.99
2019-02-20T10:38:22.787Z,1018.00
2019-02-20T10:39:27.087Z,1018.00
2019-02-20T10:40:31.292Z,1018.01
2019-02-20T10:41:35.569Z,1018.00
2019-02-20T10:42:39.872Z,1017.99
2019-02-20T10:43:44.082Z,1017.99
2019-02-20T10:44:48.360Z,1017.96
2019-02-20T10:45:52.607Z,1017.95
2019-02-20T10:46:56.814Z,1017.93
2019-02-20T10:48:01.131Z,1017.93
2019-02-20T10:49:05.498Z,1017.92
2019-02-20T10:50:09.714Z,1017.90
2019-02-20T10:51:13.995Z,1017.91
2019-02-20T10:52:18.284Z,1017.91
2019-02-20T10:53:22.460Z,1017.92
2019-02-20T10:54:29.759Z,1017.93
2019-02-20T10:55:33.084Z,1017.96
2019-02-20T10:56:37.281Z,1017.95
2019-02-20T10:57:41.583Z,1017.98
2019-02-20T10:58:45.850Z,1017.97
2019-02-20T10:59:50.120Z,1017.98
2019-02-20T11:00:54.255Z,1017.97
2019-02-20T11:01:58.589Z,1017.96
2019-02-20T11:03:02.876Z,1017.89
2019-02-20T11:04:07.039Z,1017.88
2019-02-20T11:05:11.367Z,1017.86
2019-02-20T11:06:15.661Z,1017.88
2019-02-20T11:07:19.886Z,1017.85
2019-02-20T11:08:24.045Z,1017.86
2019-02-20T11:09:28.319Z,1017.88
2019-02-20T11:10:32.606Z,1017.88
2019-02-20T11:11:36.765Z,1017.89
2019-02-20T11:12:41.020Z,1017.90
2019-02-20T11:13:45.214Z,1017.92
2019-02-20T11:14:49.559Z,1017.89
2019-02-20T11:15:53.750Z,1017.90
2019-02-20T11:16:57.956Z,1017.90
2019-02-20T11:18:02.226Z,1017.93
2019-02-20T11:19:06.478Z,1017.96
2019-02-20T11:20:10.788Z,1017.95
2019-02-20T11:21:15.073Z,1017.94
2019-02-20T11:22:20.605Z,1017.94
2019-02-20T11:23:23.574Z,1017.96
2019-02-20T11:24:27.779Z,1017.95
2019-02-20T11:25:32.144Z,1017.98
2019-02-20T11:26:43.517Z,1017.99
2019-02-20T11:27:40.651Z,1017.97
2019-02-20T11:28:44.914Z,1017.98
2019-02-20T11:29:49.229Z,1017.96
2019-02-20T11:30:53.432Z,1017.93
2019-02-20T11:31:57.727Z,1017.92
2019-02-20T11:33:03.402Z,1017.93
2019-02-20T11:34:06.112Z,1017.93
2019-02-20T11:35:10.465Z,1017.96
2019-02-20T11:36:14.629Z,1017.94
2019-02-20T11:37:18.873Z,1017.96
2019-02-20T11:38:23.119Z,1017.95
2019-02-20T11:39:27.424Z,1017.96
2019-02-20T11:40:31.629Z,1017.96
2019-02-20T11:41:35.878Z,1018.01
2019-02-20T11:42:40.206Z,1017.99
2019-02-20T11:43:44.425Z,1018.00
2019-02-20T11:44:48.619Z,1018.00
2019-02-20T11:45:52.960Z,1018.00
2019-02-20T11:46:57.205Z,1018.00
2019-02-20T11:48:01.469Z,1018.00
2019-02-20T11:49:05.720Z,1018.01
2019-02-20T11:50:09.926Z,1018.01
2019-02-20T11:51:14.288Z,1018.07
2019-02-20T11:52:18.566Z,1018.04
2019-02-20T11:53:22.805Z,1018.09
2019-02-20T11:54:27.030Z,1018.03
2019-02-20T11:55:31.392Z,1018.02
2019-02-20T11:56:35.571Z,1018.00
2019-02-20T11:57:39.903Z,1017.98
2019-02-20T11:58:44.101Z,1018.01
2019-02-20T11:59:48.435Z,1017.99
2019-02-20T12:00:52.756Z,1018.02
2019-02-20T12:01:56.937Z,1018.04
2019-02-20T12:03:01.298Z,1018.01
2019-02-20T12:04:05.477Z,1018.04
2019-02-20T12:05:09.701Z,1018.05
2019-02-20T12:06:14.062Z,1018.07
2019-02-20T12:07:18.357Z,1018.06
2019-02-20T12:08:22.519Z,1018.07
2019-02-20T12:09:26.845Z,1018.04
2019-02-20T12:10:31.098Z,1018.02
2019-02-20T12:11:35.487Z,1018.02
2019-02-20T12:12:39.777Z,1018.00
2019-02-20T12:13:44.062Z,1018.03
2019-02-20T12:14:48.362Z,1018.04
2019-02-20T12:15:52.676Z,1018.06
2019-02-20T12:16:56.966Z,1018.09
2019-02-20T12:18:01.241Z,1018.08
2019-02-20T12:19:05.550Z,1018.09
2019-02-20T12:20:09.843Z,1018.12
2019-02-20T12:21:14.175Z,1018.11
2019-02-20T12:22:18.460Z,1018.12
2019-02-20T12:23:22.769Z,1018.10
2019-02-20T12:24:27.029Z,1018.11
2019-02-20T12:25:31.310Z,1018.09
2019-02-20T12:26:35.654Z,1018.10
2019-02-20T12:27:39.961Z,1018.11
2019-02-20T12:28:44.241Z,1018.11
2019-02-20T12:29:48.428Z,1018.13
2019-02-20T12:30:52.780Z,1018.13
2019-02-20T12:31:56.987Z,1018.13
2019-02-20T12:33:01.275Z,1018.15
2019-02-20T12:34:05.537Z,1018.13
2019-02-20T12:35:10.622Z,1018.15
2019-02-20T12:36:14.482Z,1018.15
2019-02-20T12:37:18.800Z,1018.18
2019-02-20T12:38:22.958Z,1018.18
2019-02-20T12:39:27.810Z,1018.16
2019-02-20T12:40:31.317Z,1018.19
2019-02-20T12:41:35.749Z,1018.17
2019-02-20T12:42:41.930Z,1018.16
2019-02-20T12:43:44.298Z,1018.15
2019-02-20T12:44:48.592Z,1018.17
2019-02-20T12:45:52.824Z,1018.15
2019-02-20T12:46:57.151Z,1018.16
2019-02-20T12:48:01.204Z,1018.16
2019-02-20T12:49:05.596Z,1018.18
2019-02-20T12:50:09.887Z,1018.19
2019-02-20T12:51:14.075Z,1018.20
2019-02-20T12:52:18.385Z,1018.18
2019-02-20T12:53:22.662Z,1018.20
2019-02-20T12:54:26.908Z,1018.23
2019-02-20T12:55:31.222Z,1018.24
2019-02-20T12:56:43.428Z,1018.24